< < Back
Terminal Aerodrome Forecast


Current Version              Previous Versions:   1  2  3  4  5  6  7  8  9  

Terminal Aerodrome Forecast

826
FTUS42 KJAX 171700
TAFSSI
TAF
KSSI 171735Z 1718/1818 10006KT P6SM SCT030
     FM172000 06006KT P6SM VCSH SCT035
     FM180700 VRB03KT P6SM SCT040
     FM181300 VRB05KT P6SM SKC=

Latest METAR

369
SAUS70 KWBC 171700 RRK
MTRSSI
METAR KSSI 171653Z AUTO 09009KT 10SM FEW033 29/21 A2992 RMK AO2 SLP130
T02940211


USA.gov is the U.S. government's official web portal to all federal, state and local government web resources and services.